Terminal Aerodrome Forecast
Issued by NWS Bismarck, ND

Home | Current Version | Previous Version | Graphics & Text | Print | Product List | Glossary On
Versions: 1 2 3 4 5 6 7 8 9 10 11 12 13 14 15 16 17 18 19 20 21 22 23 24 25 26
970
FTUS43 KBIS 251427 AAA
TAFISN
TAF AMD
KISN 251427Z 2514/2612 02009KT 6SM SHRA OVC025
     FM252200 35011KT 5SM SHRA BR OVC015
     FM260000 34011KT P6SM OVC015
     FM260500 31006KT P6SM BKN035=

USA.gov is the U.S. government's official web portal to all federal, state and local government web resources and services.